Time;durP1;ratioP1;P1;durP2;ratioP2;P2;SDS_P1;SDS_P2;PMS_P1;PMS_P2;Temp;Humidity;BMP_temperature;BMP_pressure;BME280_temperature;BME280_humidity;BME280_pressure;Samples;Min_cycle;Max_cycle;Signal;HPM_P1;HPM_P2
2022/12/23 00:01:34;;;;;;;;;;;;;;;;;;6241220;23;19930;-75
2022/12/23 00:03:59;;;;;;;;;;;;;;;;;;6241447;23;19918;-75
2022/12/23 00:06:26;;;;;;;;;;;;;;;;;;6214201;23;19919;-76
2022/12/23 00:08:56;;;;;;;;;;;;;;;;;;6241077;23;19965;-75
2022/12/23 00:11:22;;;;;;;;;;;;;;;;;;6240488;23;19957;-75
2022/12/23 00:16:33;;;;;;;;;;;;;;;;;;6241452;23;19919;-77
2022/12/23 00:18:59;;;;;;;;;;;;;;;;;;6242016;23;20255;-77
2022/12/23 00:21:24;;;;;;;;;;;;;;;;;;6241002;23;19930;-76
2022/12/23 00:23:50;;;;;;;;;;;;;;;;;;6241491;23;19947;-76
2022/12/23 00:26:16;;;;;;;;;;;;;;;;;;6240754;23;20360;-78
2022/12/23 00:28:42;;;;;;;;;;;;;;;;;;6240945;23;19918;-78
2022/12/23 00:31:07;;;;;;;;;;;;;;;;;;6214466;23;19942;-76
2022/12/23 00:33:33;;;;;;;;;;;;;;;;;;6241429;23;19915;-78
2022/12/23 00:35:59;;;;;;;;;;;;;;;;;;6241667;23;19919;-77
2022/12/23 00:43:53;;;;;;;;;;;;;;;;;;6241930;23;19934;-78
2022/12/23 00:46:19;;;;;;;;;;;;;;;;;;6214453;23;19946;-77
2022/12/23 00:51:29;;;;;;;;;;;;;;;;;;6241225;23;19912;-78
2022/12/23 00:53:55;;;;;;;;;;;;;;;;;;6241037;23;19918;-78
2022/12/23 00:56:20;;;;;;;;;;;;;;;;;;6241121;23;19943;-78
2022/12/23 00:58:46;;;;;;;;;;;;;;;;;;6241148;23;19966;-77
2022/12/23 01:06:51;;;;;;;;;;;;;;;;;;6240651;23;19946;-74
2022/12/23 01:09:17;;;;;;;;;;;;;;;;;;6240905;23;19912;-78
2022/12/23 01:11:42;;;;;;;;;;;;;;;;;;6241142;23;19919;-78
2022/12/23 01:14:08;;;;;;;;;;;;;;;;;;6214063;23;19912;-77
2022/12/23 01:16:34;;;;;;;;;;;;;;;;;;6240486;23;19915;-76
2022/12/23 01:18:59;;;;;;;;;;;;;;;;;;6240322;23;20715;-77
2022/12/23 01:21:25;;;;;;;;;;;;;;;;;;6239922;23;19962;-78
2022/12/23 01:23:51;;;;;;;;;;;;;;;;;;6240828;23;19939;-77
2022/12/23 01:26:16;;;;;;;;;;;;;;;;;;6239843;23;20375;-77
2022/12/23 01:28:42;;;;;;;;;;;;;;;;;;6213695;23;19912;-78
2022/12/23 01:31:08;;;;;;;;;;;;;;;;;;6240634;23;19990;-77
2022/12/23 01:33:33;;;;;;;;;;;;;;;;;;6240584;23;19912;-76
2022/12/23 01:35:59;;;;;;;;;;;;;;;;;;6240549;23;20359;-77
2022/12/23 01:38:25;;;;;;;;;;;;;;;;;;6212946;23;19911;-76
2022/12/23 01:40:51;;;;;;;;;;;;;;;;;;6213916;23;19927;-74
2022/12/23 01:43:17;;;;;;;;;;;;;;;;;;6240356;23;19935;-77
2022/12/23 01:45:42;;;;;;;;;;;;;;;;;;6240498;23;20658;-77
2022/12/23 01:48:11;;;;;;;;;;;;;;;;;;6240113;23;19912;-77
2022/12/23 01:50:36;;;;;;;;;;;;;;;;;;6188372;23;19994;-77
2022/12/23 01:53:02;;;;;;;;;;;;;;;;;;6240054;23;19986;-76
2022/12/23 01:55:28;;;;;;;;;;;;;;;;;;6212916;23;19912;-77
2022/12/23 01:57:53;;;;;;;;;;;;;;;;;;6240354;23;19920;-78
2022/12/23 02:05:48;;;;;;;;;;;;;;;;;;6239892;23;19976;-76
2022/12/23 02:10:58;;;;;;;;;;;;;;;;;;6240703;23;20401;-78
2022/12/23 02:13:24;;;;;;;;;;;;;;;;;;6239712;23;19998;-78
2022/12/23 02:16:15;;;;;;;;;;;;;;;;;;6176179;23;19918;-79
2022/12/23 02:18:41;;;;;;;;;;;;;;;;;;6213816;23;19962;-78
2022/12/23 02:21:07;;;;;;;;;;;;;;;;;;6240394;23;19924;-79
2022/12/23 02:23:33;;;;;;;;;;;;;;;;;;6240640;23;19918;-79
2022/12/23 02:25:58;;;;;;;;;;;;;;;;;;6240487;23;19950;-77
2022/12/23 02:28:24;;;;;;;;;;;;;;;;;;6239504;23;19915;-76
2022/12/23 02:30:50;;;;;;;;;;;;;;;;;;6240334;23;20316;-78
2022/12/23 02:33:16;;;;;;;;;;;;;;;;;;6212809;23;19912;-78
2022/12/23 02:35:42;;;;;;;;;;;;;;;;;;6213646;23;19918;-77
2022/12/23 02:38:07;;;;;;;;;;;;;;;;;;6240262;23;19918;-79
2022/12/23 02:40:33;;;;;;;;;;;;;;;;;;6188452;23;19941;-78
2022/12/23 02:42:59;;;;;;;;;;;;;;;;;;6240465;23;19999;-78
2022/12/23 02:45:24;;;;;;;;;;;;;;;;;;6188742;23;20383;-76
2022/12/23 02:47:50;;;;;;;;;;;;;;;;;;6240098;23;19912;-80
2022/12/23 02:50:15;;;;;;;;;;;;;;;;;;6212850;23;19912;-78
2022/12/23 02:52:41;;;;;;;;;;;;;;;;;;6213297;23;19912;-79
2022/12/23 02:55:07;;;;;;;;;;;;;;;;;;6240350;23;19912;-79
2022/12/23 02:57:32;;;;;;;;;;;;;;;;;;6213552;23;19927;-78
2022/12/23 02:59:58;;;;;;;;;;;;;;;;;;6213502;23;19911;-77
2022/12/23 03:02:24;;;;;;;;;;;;;;;;;;6239613;23;19915;-78
2022/12/23 03:04:49;;;;;;;;;;;;;;;;;;6188436;23;19911;-78
2022/12/23 03:07:15;;;;;;;;;;;;;;;;;;6239499;23;19926;-78
2022/12/23 03:09:42;;;;;;;;;;;;;;;;;;6239550;23;20007;-79
2022/12/23 03:12:07;;;;;;;;;;;;;;;;;;6241071;23;19912;-79
2022/12/23 03:14:33;;;;;;;;;;;;;;;;;;6242047;23;19995;-80
2022/12/23 03:16:58;;;;;;;;;;;;;;;;;;6242779;23;19918;-77
2022/12/23 03:19:24;;;;;;;;;;;;;;;;;;6242187;23;19922;-79
2022/12/23 03:21:50;;;;;;;;;;;;;;;;;;6242276;23;19919;-79
2022/12/23 03:24:15;;;;;;;;;;;;;;;;;;6242531;23;19919;-80
2022/12/23 03:26:41;;;;;;;;;;;;;;;;;;6243230;23;19911;-79
2022/12/23 03:29:06;;;;;;;;;;;;;;;;;;6216710;23;19911;-80
2022/12/23 03:31:32;;;;;;;;;;;;;;;;;;6212744;23;19912;-79
2022/12/23 03:33:58;;;;;;;;;;;;;;;;;;6218490;23;19912;-78
2022/12/23 03:36:23;;;;;;;;;;;;;;;;;;6191402;23;19934;-78
2022/12/23 03:38:49;;;;;;;;;;;;;;;;;;6216803;23;20356;-79
2022/12/23 03:41:15;;;;;;;;;;;;;;;;;;6241472;23;19927;-80
2022/12/23 03:43:40;;;;;;;;;;;;;;;;;;6242653;23;19934;-80
2022/12/23 03:46:06;;;;;;;;;;;;;;;;;;6190046;23;20331;-80
2022/12/23 03:48:32;;;;;;;;;;;;;;;;;;6215838;23;20261;-79
2022/12/23 03:50:58;;;;;;;;;;;;;;;;;;6215179;23;19912;-79
2022/12/23 03:53:23;;;;;;;;;;;;;;;;;;6241486;23;19912;-79
2022/12/23 03:55:49;;;;;;;;;;;;;;;;;;6241187;23;20345;-79
2022/12/23 03:58:15;;;;;;;;;;;;;;;;;;6242558;23;19973;-77
2022/12/23 04:00:40;;;;;;;;;;;;;;;;;;6242349;23;19990;-78
2022/12/23 04:03:06;;;;;;;;;;;;;;;;;;6213958;23;19980;-75
2022/12/23 04:05:31;;;;;;;;;;;;;;;;;;6212654;23;19986;-76
2022/12/23 04:07:57;;;;;;;;;;;;;;;;;;6213160;23;19923;-78
2022/12/23 04:10:23;;;;;;;;;;;;;;;;;;6213829;23;20351;-77
2022/12/23 04:12:49;;;;;;;;;;;;;;;;;;6214228;23;19919;-78
2022/12/23 04:15:15;;;;;;;;;;;;;;;;;;6241432;23;19912;-76
2022/12/23 04:17:40;;;;;;;;;;;;;;;;;;6241226;23;19911;-76
2022/12/23 04:20:06;;;;;;;;;;;;;;;;;;6214223;23;19917;-77
2022/12/23 04:22:32;;;;;;;;;;;;;;;;;;6216069;23;19962;-78
2022/12/23 04:24:58;;;;;;;;;;;;;;;;;;6247077;23;19918;-77
2022/12/23 04:27:24;;;;;;;;;;;;;;;;;;6205259;23;19911;-77
2022/12/23 04:29:50;;;;;;;;;;;;;;;;;;6255913;23;20060;-77
2022/12/23 04:32:16;;;;;;;;;;;;;;;;;;6230492;23;19912;-81
2022/12/23 04:34:42;;;;;;;;;;;;;;;;;;6246280;23;20236;-77
2022/12/23 04:37:07;;;;;;;;;;;;;;;;;;6189762;23;19919;-77
2022/12/23 04:39:33;;;;;;;;;;;;;;;;;;6242591;23;19911;-75
2022/12/23 04:41:59;;;;;;;;;;;;;;;;;;6216038;23;20304;-76
2022/12/23 04:44:24;;;;;;;;;;;;;;;;;;6242197;23;20354;-77
2022/12/23 04:46:50;;;;;;;;;;;;;;;;;;6243115;23;19912;-76
2022/12/23 04:49:16;;;;;;;;;;;;;;;;;;6240211;23;19911;-77
2022/12/23 04:51:42;;;;;;;;;;;;;;;;;;6213285;23;19912;-77
2022/12/23 04:54:07;;;;;;;;;;;;;;;;;;6214202;23;19965;-76
2022/12/23 04:56:33;;;;;;;;;;;;;;;;;;6215207;23;19994;-76
2022/12/23 04:59:01;;;;;;;;;;;;;;;;;;6242198;23;20360;-77
2022/12/23 05:01:26;;;;;;;;;;;;;;;;;;6241780;23;20264;-77
2022/12/23 05:03:52;;;;;;;;;;;;;;;;;;6215127;23;19911;-76
2022/12/23 05:06:18;;;;;;;;;;;;;;;;;;6241213;23;19919;-76
2022/12/23 05:08:43;;;;;;;;;;;;;;;;;;6241579;23;19911;-74
2022/12/23 05:11:09;;;;;;;;;;;;;;;;;;6240621;23;20348;-75
2022/12/23 05:13:34;;;;;;;;;;;;;;;;;;6241347;23;19966;-75
2022/12/23 05:16:00;;;;;;;;;;;;;;;;;;6240895;23;20403;-75
2022/12/23 05:18:26;;;;;;;;;;;;;;;;;;6241190;23;19918;-74
2022/12/23 05:20:51;;;;;;;;;;;;;;;;;;6214490;23;19930;-74
2022/12/23 05:23:17;;;;;;;;;;;;;;;;;;6241075;23;19918;-75
2022/12/23 05:25:43;;;;;;;;;;;;;;;;;;6214247;23;19911;-74
2022/12/23 05:28:09;;;;;;;;;;;;;;;;;;6241708;23;19911;-76
2022/12/23 05:30:34;;;;;;;;;;;;;;;;;;6189965;23;19919;-78
2022/12/23 05:33:00;;;;;;;;;;;;;;;;;;6241995;23;20261;-78
2022/12/23 05:35:26;;;;;;;;;;;;;;;;;;6214342;23;19972;-77
2022/12/23 05:37:51;;;;;;;;;;;;;;;;;;6190422;23;19939;-78
2022/12/23 05:40:17;;;;;;;;;;;;;;;;;;6211055;23;19926;-77
2022/12/23 05:42:43;;;;;;;;;;;;;;;;;;6241532;23;19912;-76
2022/12/23 05:45:08;;;;;;;;;;;;;;;;;;6240755;23;19965;-77
2022/12/23 05:47:34;;;;;;;;;;;;;;;;;;6241640;23;19916;-78
2022/12/23 05:50:00;;;;;;;;;;;;;;;;;;6241138;23;19922;-78
2022/12/23 05:52:25;;;;;;;;;;;;;;;;;;6213754;23;19911;-77
2022/12/23 05:54:51;;;;;;;;;;;;;;;;;;6240538;23;19919;-78
2022/12/23 05:57:16;;;;;;;;;;;;;;;;;;6240793;23;20002;-77
2022/12/23 05:59:42;;;;;;;;;;;;;;;;;;6241344;23;20129;-76
2022/12/23 06:02:08;;;;;;;;;;;;;;;;;;6240191;23;20268;-76
2022/12/23 06:04:33;;;;;;;;;;;;;;;;;;6213292;23;19918;-77
2022/12/23 06:06:59;;;;;;;;;;;;;;;;;;6189043;23;19920;-77
2022/12/23 06:09:25;;;;;;;;;;;;;;;;;;6213693;23;19915;-77
2022/12/23 06:11:50;;;;;;;;;;;;;;;;;;6189060;23;19986;-77
2022/12/23 06:14:16;;;;;;;;;;;;;;;;;;6240450;23;20260;-76
2022/12/23 06:16:42;;;;;;;;;;;;;;;;;;6214847;23;19911;-79
2022/12/23 06:19:07;;;;;;;;;;;;;;;;;;6213768;23;19922;-77
2022/12/23 06:21:33;;;;;;;;;;;;;;;;;;6242103;23;19919;-77
2022/12/23 06:23:58;;;;;;;;;;;;;;;;;;6240713;23;19911;-78
2022/12/23 06:26:24;;;;;;;;;;;;;;;;;;6240320;23;19915;-78
2022/12/23 06:28:50;;;;;;;;;;;;;;;;;;6241194;23;19912;-80
2022/12/23 06:31:16;;;;;;;;;;;;;;;;;;6241840;23;19919;-78
2022/12/23 06:33:41;;;;;;;;;;;;;;;;;;6241457;23;19918;-76
2022/12/23 06:36:07;;;;;;;;;;;;;;;;;;6241370;23;20322;-77
2022/12/23 06:38:33;;;;;;;;;;;;;;;;;;6213817;23;19912;-78
2022/12/23 06:40:58;;;;;;;;;;;;;;;;;;6242278;23;19926;-78
2022/12/23 06:43:24;;;;;;;;;;;;;;;;;;6214125;23;19916;-79
2022/12/23 06:45:50;;;;;;;;;;;;;;;;;;6241768;23;19911;-78
2022/12/23 06:48:16;;;;;;;;;;;;;;;;;;6242401;23;19912;-77
2022/12/23 06:50:41;;;;;;;;;;;;;;;;;;6242673;23;19911;-77
2022/12/23 06:53:07;;;;;;;;;;;;;;;;;;6215090;23;19918;-78
2022/12/23 06:55:32;;;;;;;;;;;;;;;;;;6215370;23;19911;-77
2022/12/23 06:57:58;;;;;;;;;;;;;;;;;;6242714;23;19912;-77
2022/12/23 07:00:24;;;;;;;;;;;;;;;;;;6242737;23;19961;-75
2022/12/23 07:02:49;;;;;;;;;;;;;;;;;;6242697;23;19911;-77
2022/12/23 07:05:15;;;;;;;;;;;;;;;;;;6241646;23;19966;-76
2022/12/23 07:07:41;;;;;;;;;;;;;;;;;;6242302;23;19939;-76
2022/12/23 07:10:07;;;;;;;;;;;;;;;;;;6214785;23;19912;-75
2022/12/23 07:12:33;;;;;;;;;;;;;;;;;;6241985;23;19940;-75
2022/12/23 07:14:59;;;;;;;;;;;;;;;;;;6215340;23;19919;-77
2022/12/23 07:17:24;;;;;;;;;;;;;;;;;;6241654;23;20324;-77
2022/12/23 07:19:50;;;;;;;;;;;;;;;;;;6242580;23;19911;-76
2022/12/23 07:22:16;;;;;;;;;;;;;;;;;;6242286;23;19926;-76
2022/12/23 07:24:41;;;;;;;;;;;;;;;;;;6242539;23;20396;-78
2022/12/23 07:27:07;;;;;;;;;;;;;;;;;;6242174;23;19911;-77
2022/12/23 07:29:33;;;;;;;;;;;;;;;;;;6241861;23;19915;-77
2022/12/23 07:31:58;;;;;;;;;;;;;;;;;;6242469;23;20234;-76
2022/12/23 07:34:24;;;;;;;;;;;;;;;;;;6242046;23;20475;-76
2022/12/23 07:36:50;;;;;;;;;;;;;;;;;;6242709;23;20300;-78
2022/12/23 07:39:15;;;;;;;;;;;;;;;;;;6242434;23;19989;-79
2022/12/23 07:41:41;;;;;;;;;;;;;;;;;;6216157;23;20375;-81
2022/12/23 07:44:07;;;;;;;;;;;;;;;;;;6244292;23;19912;-81
2022/12/23 07:46:33;;;;;;;;;;;;;;;;;;6243359;23;19912;-79
2022/12/23 07:48:59;;;;;;;;;;;;;;;;;;6244215;23;20329;-80
2022/12/23 07:51:24;;;;;;;;;;;;;;;;;;6215852;23;19981;-80
2022/12/23 07:53:50;;;;;;;;;;;;;;;;;;6216781;23;19911;-81
2022/12/23 07:56:16;;;;;;;;;;;;;;;;;;6243372;23;19911;-80
2022/12/23 07:58:42;;;;;;;;;;;;;;;;;;6243474;23;19911;-80
2022/12/23 08:01:08;;;;;;;;;;;;;;;;;;6243540;23;20427;-79
2022/12/23 08:03:34;;;;;;;;;;;;;;;;;;6215976;23;19974;-78
2022/12/23 08:06:00;;;;;;;;;;;;;;;;;;6195142;23;19923;-78
2022/12/23 08:08:26;;;;;;;;;;;;;;;;;;6242793;23;19938;-78
2022/12/23 08:10:52;;;;;;;;;;;;;;;;;;6215995;23;19911;-79
2022/12/23 08:13:17;;;;;;;;;;;;;;;;;;6220406;23;20339;-83
2022/12/23 08:15:43;;;;;;;;;;;;;;;;;;6192941;23;19912;-80
2022/12/23 08:18:09;;;;;;;;;;;;;;;;;;6242992;23;20352;-79
2022/12/23 08:20:34;;;;;;;;;;;;;;;;;;6243161;23;19938;-78
2022/12/23 08:23:00;;;;;;;;;;;;;;;;;;6242422;23;19915;-77
2022/12/23 08:25:26;;;;;;;;;;;;;;;;;;6241262;23;19916;-78
2022/12/23 08:27:51;;;;;;;;;;;;;;;;;;6215359;23;19911;-80
2022/12/23 08:30:17;;;;;;;;;;;;;;;;;;6241852;23;19912;-79
2022/12/23 08:32:42;;;;;;;;;;;;;;;;;;6242234;23;19908;-80
2022/12/23 08:35:08;;;;;;;;;;;;;;;;;;6242250;23;19912;-81
2022/12/23 08:37:34;;;;;;;;;;;;;;;;;;6214894;23;19962;-80
2022/12/23 08:40:00;;;;;;;;;;;;;;;;;;6242049;23;19987;-81
2022/12/23 08:42:25;;;;;;;;;;;;;;;;;;6239580;23;19912;-80
2022/12/23 08:44:51;;;;;;;;;;;;;;;;;;6240577;23;19957;-79
2022/12/23 08:47:16;;;;;;;;;;;;;;;;;;6240267;23;19911;-80
2022/12/23 08:49:42;;;;;;;;;;;;;;;;;;6240829;23;20034;-81
2022/12/23 08:52:08;;;;;;;;;;;;;;;;;;6241154;23;19939;-80
2022/12/23 08:54:33;;;;;;;;;;;;;;;;;;6241125;23;20517;-80
2022/12/23 08:56:59;;;;;;;;;;;;;;;;;;6240373;23;19918;-81
2022/12/23 08:59:25;;;;;;;;;;;;;;;;;;6213390;23;19922;-80
2022/12/23 09:01:51;;;;;;;;;;;;;;;;;;6241432;23;20361;-80
2022/12/23 09:04:16;;;;;;;;;;;;;;;;;;6240147;23;19895;-80
2022/12/23 09:06:42;;;;;;;;;;;;;;;;;;6244997;23;19927;-79
2022/12/23 09:09:08;;;;;;;;;;;;;;;;;;6243755;23;19911;-81
2022/12/23 09:11:33;;;;;;;;;;;;;;;;;;6244472;23;19911;-81
2022/12/23 09:13:59;;;;;;;;;;;;;;;;;;6245562;23;19912;-81
2022/12/23 09:16:25;;;;;;;;;;;;;;;;;;6219559;23;19916;-80
2022/12/23 09:18:50;;;;;;;;;;;;;;;;;;6241323;23;19912;-80
2022/12/23 09:21:16;;;;;;;;;;;;;;;;;;6241813;23;20058;-79
2022/12/23 09:23:42;;;;;;;;;;;;;;;;;;6242572;23;19919;-79
2022/12/23 09:26:07;;;;;;;;;;;;;;;;;;6241529;23;20304;-80
2022/12/23 09:28:33;;;;;;;;;;;;;;;;;;6242140;23;19915;-79
2022/12/23 09:30:59;;;;;;;;;;;;;;;;;;6216466;23;19934;-79
2022/12/23 09:33:24;;;;;;;;;;;;;;;;;;6241950;23;19915;-79
2022/12/23 09:35:50;;;;;;;;;;;;;;;;;;6242254;23;20008;-78
2022/12/23 09:38:16;;;;;;;;;;;;;;;;;;6215684;23;20257;-79
2022/12/23 09:40:41;;;;;;;;;;;;;;;;;;6215661;23;19919;-79
2022/12/23 09:43:07;;;;;;;;;;;;;;;;;;6242774;23;20033;-79
2022/12/23 09:45:33;;;;;;;;;;;;;;;;;;6243463;23;19912;-80
2022/12/23 09:47:58;;;;;;;;;;;;;;;;;;6217635;23;20006;-80
2022/12/23 09:50:24;;;;;;;;;;;;;;;;;;6248979;23;20260;-79
2022/12/23 09:52:50;;;;;;;;;;;;;;;;;;6260507;23;19928;-83
2022/12/23 09:55:15;;;;;;;;;;;;;;;;;;6258340;23;19919;-81
2022/12/23 09:57:41;;;;;;;;;;;;;;;;;;6256494;23;19911;-80
2022/12/23 10:00:06;;;;;;;;;;;;;;;;;;6253003;23;19911;-79
2022/12/23 10:02:32;;;;;;;;;;;;;;;;;;6243386;23;19938;-80
2022/12/23 10:04:58;;;;;;;;;;;;;;;;;;6247867;23;20225;-79
2022/12/23 10:07:25;;;;;;;;;;;;;;;;;;6190823;23;19986;-78
2022/12/23 10:09:50;;;;;;;;;;;;;;;;;;6243129;23;19912;-81
2022/12/23 10:12:16;;;;;;;;;;;;;;;;;;6248359;23;19911;-81
2022/12/23 10:14:42;;;;;;;;;;;;;;;;;;6220849;23;19934;-83
2022/12/23 10:17:08;;;;;;;;;;;;;;;;;;6248685;23;19918;-82
2022/12/23 10:19:34;;;;;;;;;;;;;;;;;;6248970;23;19995;-81
2022/12/23 10:22:00;;;;;;;;;;;;;;;;;;6248590;23;20203;-80
2022/12/23 10:24:25;;;;;;;;;;;;;;;;;;6247369;23;19930;-81
2022/12/23 10:26:51;;;;;;;;;;;;;;;;;;6245498;23;19912;-81
2022/12/23 10:29:17;;;;;;;;;;;;;;;;;;6244771;23;19912;-80
2022/12/23 10:31:43;;;;;;;;;;;;;;;;;;6221067;23;19957;-81
2022/12/23 10:34:08;;;;;;;;;;;;;;;;;;6247420;23;19936;-80
2022/12/23 10:36:34;;;;;;;;;;;;;;;;;;6246938;23;19941;-79
2022/12/23 10:38:59;;;;;;;;;;;;;;;;;;6246180;23;19912;-81
2022/12/23 10:41:25;;;;;;;;;;;;;;;;;;6248541;23;19927;-82
2022/12/23 10:43:51;;;;;;;;;;;;;;;;;;6251050;23;19908;-82
2022/12/23 10:46:17;;;;;;;;;;;;;;;;;;6252668;23;19918;-83
2022/12/23 10:48:43;;;;;;;;;;;;;;;;;;6253877;23;19915;-81
2022/12/23 10:51:08;;;;;;;;;;;;;;;;;;6247069;23;19911;-79
2022/12/23 10:53:34;;;;;;;;;;;;;;;;;;6217343;23;20153;-79
2022/12/23 10:56:00;;;;;;;;;;;;;;;;;;6244003;23;19912;-81
2022/12/23 10:58:25;;;;;;;;;;;;;;;;;;6243159;23;19912;-79
2022/12/23 11:00:51;;;;;;;;;;;;;;;;;;6216416;23;19938;-81
2022/12/23 11:03:17;;;;;;;;;;;;;;;;;;6195022;23;20260;-82
2022/12/23 11:05:42;;;;;;;;;;;;;;;;;;6247581;23;19904;-81
2022/12/23 11:08:08;;;;;;;;;;;;;;;;;;6246379;23;19998;-78
2022/12/23 11:10:34;;;;;;;;;;;;;;;;;;6253104;23;19918;-80
2022/12/23 11:12:59;;;;;;;;;;;;;;;;;;6243352;23;19957;-79
2022/12/23 11:15:25;;;;;;;;;;;;;;;;;;6254894;22;19941;-82
2022/12/23 11:17:51;;;;;;;;;;;;;;;;;;6201590;23;20371;-80
2022/12/23 11:20:17;;;;;;;;;;;;;;;;;;6221514;23;19918;-78
2022/12/23 11:22:42;;;;;;;;;;;;;;;;;;6242936;23;19994;-79
2022/12/23 11:25:08;;;;;;;;;;;;;;;;;;6244668;23;19915;-82
2022/12/23 11:27:34;;;;;;;;;;;;;;;;;;6244906;23;19911;-79
2022/12/23 11:29:59;;;;;;;;;;;;;;;;;;6242975;23;19990;-80
2022/12/23 11:32:25;;;;;;;;;;;;;;;;;;6242085;23;19922;-81
2022/12/23 11:34:50;;;;;;;;;;;;;;;;;;6243165;23;19912;-79
2022/12/23 11:37:17;;;;;;;;;;;;;;;;;;6242748;23;19998;-80
2022/12/23 11:39:42;;;;;;;;;;;;;;;;;;6216347;23;19947;-81
2022/12/23 11:42:08;;;;;;;;;;;;;;;;;;6243024;23;19920;-79
2022/12/23 11:44:34;;;;;;;;;;;;;;;;;;6243006;23;19915;-79
2022/12/23 11:47:00;;;;;;;;;;;;;;;;;;6243718;23;19907;-79
2022/12/23 11:49:26;;;;;;;;;;;;;;;;;;6217574;23;19912;-80
2022/12/23 11:51:51;;;;;;;;;;;;;;;;;;6243099;23;20391;-80
2022/12/23 11:54:17;;;;;;;;;;;;;;;;;;6242374;23;20666;-81
2022/12/23 11:56:43;;;;;;;;;;;;;;;;;;6244179;23;19911;-80
2022/12/23 11:59:08;;;;;;;;;;;;;;;;;;6251300;23;19986;-80
2022/12/23 12:01:34;;;;;;;;;;;;;;;;;;6248119;23;19919;-80
2022/12/23 12:04:00;;;;;;;;;;;;;;;;;;6216697;23;19938;-81
2022/12/23 12:06:25;;;;;;;;;;;;;;;;;;6241466;23;19926;-79
2022/12/23 12:08:51;;;;;;;;;;;;;;;;;;6243190;23;19950;-80
2022/12/23 12:11:16;;;;;;;;;;;;;;;;;;6243326;23;19973;-80
2022/12/23 12:13:43;;;;;;;;;;;;;;;;;;6245549;23;20042;-80
2022/12/23 12:16:08;;;;;;;;;;;;;;;;;;6217447;23;20352;-81
2022/12/23 12:18:34;;;;;;;;;;;;;;;;;;6248075;23;19958;-82
2022/12/23 12:21:00;;;;;;;;;;;;;;;;;;6220729;23;20309;-82
2022/12/23 12:23:25;;;;;;;;;;;;;;;;;;6247371;23;19919;-82
2022/12/23 12:25:51;;;;;;;;;;;;;;;;;;6245252;23;19896;-80
2022/12/23 12:28:17;;;;;;;;;;;;;;;;;;6245349;23;19918;-82
2022/12/23 12:30:42;;;;;;;;;;;;;;;;;;6250362;23;19911;-86
2022/12/23 12:33:08;;;;;;;;;;;;;;;;;;6228122;22;19927;-84
2022/12/23 12:35:35;;;;;;;;;;;;;;;;;;6242964;22;21109;-83
2022/12/23 12:40:43;;;;;;;;;;;;;;;;;;6249908;23;19924;-82
2022/12/23 12:43:08;;;;;;;;;;;;;;;;;;6202077;23;19934;-82
2022/12/23 12:45:34;;;;;;;;;;;;;;;;;;6258169;23;19911;-83
2022/12/23 12:48:00;;;;;;;;;;;;;;;;;;6265022;23;19915;-84
2022/12/23 12:50:28;;;;;;;;;;;;;;;;;;6262933;23;19911;-85
2022/12/23 12:52:53;;;;;;;;;;;;;;;;;;6259057;23;19922;-83
2022/12/23 12:55:19;;;;;;;;;;;;;;;;;;6263738;23;19950;-85
2022/12/23 12:57:45;;;;;;;;;;;;;;;;;;6237454;23;19938;-83
2022/12/23 13:00:10;;;;;;;;;;;;;;;;;;6237306;23;19912;-85
2022/12/23 13:02:36;;;;;;;;;;;;;;;;;;6240966;23;19911;-85
2022/12/23 13:05:02;;;;;;;;;;;;;;;;;;6268529;22;19900;-85
2022/12/23 13:07:28;;;;;;;;;;;;;;;;;;6236781;22;19946;-82
2022/12/23 13:09:54;;;;;;;;;;;;;;;;;;6265287;23;19911;-83
2022/12/23 13:12:19;;;;;;;;;;;;;;;;;;6234617;23;19906;-84
2022/12/23 13:14:45;;;;;;;;;;;;;;;;;;6261764;23;19922;-84
2022/12/23 13:17:10;;;;;;;;;;;;;;;;;;6269195;23;19908;-86
2022/12/23 13:19:36;;;;;;;;;;;;;;;;;;6240071;23;19938;-84
2022/12/23 13:22:02;;;;;;;;;;;;;;;;;;6214686;23;19945;-87
2022/12/23 13:24:29;;;;;;;;;;;;;;;;;;6183455;23;20033;-86
2022/12/23 13:26:55;;;;;;;;;;;;;;;;;;6210691;23;19925;-86
2022/12/23 13:29:21;;;;;;;;;;;;;;;;;;6209033;23;19916;-85
2022/12/23 13:31:46;;;;;;;;;;;;;;;;;;6197468;23;19954;-83
2022/12/23 13:34:12;;;;;;;;;;;;;;;;;;6206068;23;19932;-87
2022/12/23 13:36:38;;;;;;;;;;;;;;;;;;6208191;23;19917;-86
2022/12/23 13:39:03;;;;;;;;;;;;;;;;;;6194868;23;19912;-82
2022/12/23 13:41:29;;;;;;;;;;;;;;;;;;6187107;23;20376;-83
2022/12/23 13:43:55;;;;;;;;;;;;;;;;;;6190642;23;19924;-82
2022/12/23 13:49:11;;;;;;;;;;;;;;;;;;6141052;23;19929;-83
2022/12/23 13:51:37;;;;;;;;;;;;;;;;;;6097299;23;20352;-84
2022/12/23 13:54:03;;;;;;;;;;;;;;;;;;6152299;23;19935;-86
2022/12/23 13:56:29;;;;;;;;;;;;;;;;;;6206935;23;19928;-84
2022/12/23 13:58:54;;;;;;;;;;;;;;;;;;6179743;23;19896;-87
2022/12/23 14:01:20;;;;;;;;;;;;;;;;;;6235690;23;19904;-84
2022/12/23 14:03:46;;;;;;;;;;;;;;;;;;6188667;22;19948;-84
2022/12/23 14:06:12;;;;;;;;;;;;;;;;;;6237305;23;19912;-79
2022/12/23 14:08:37;;;;;;;;;;;;;;;;;;6214098;23;19912;-82
2022/12/23 14:11:03;;;;;;;;;;;;;;;;;;6215002;23;19911;-82
2022/12/23 14:13:29;;;;;;;;;;;;;;;;;;6189552;23;19922;-81
2022/12/23 14:15:54;;;;;;;;;;;;;;;;;;6212434;23;20308;-81
2022/12/23 14:18:20;;;;;;;;;;;;;;;;;;6182430;23;19924;-81
2022/12/23 14:20:46;;;;;;;;;;;;;;;;;;6188719;23;19948;-82
2022/12/23 14:23:12;;;;;;;;;;;;;;;;;;6198080;23;19935;-84
2022/12/23 14:25:38;;;;;;;;;;;;;;;;;;6196298;23;19912;-82
2022/12/23 14:28:04;;;;;;;;;;;;;;;;;;6197625;23;19916;-86
2022/12/23 14:30:29;;;;;;;;;;;;;;;;;;6173499;23;19912;-83
2022/12/23 14:32:55;;;;;;;;;;;;;;;;;;6200560;23;20381;-84
2022/12/23 14:35:21;;;;;;;;;;;;;;;;;;6193969;23;19912;-81
2022/12/23 14:37:46;;;;;;;;;;;;;;;;;;6189134;23;19922;-84
2022/12/23 14:40:12;;;;;;;;;;;;;;;;;;6184816;23;19916;-83
2022/12/23 14:42:38;;;;;;;;;;;;;;;;;;6193236;23;19912;-83
2022/12/23 14:45:03;;;;;;;;;;;;;;;;;;6193325;23;20391;-85
2022/12/23 14:47:30;;;;;;;;;;;;;;;;;;6192387;23;19912;-83
2022/12/23 14:49:55;;;;;;;;;;;;;;;;;;6189605;23;19912;-83
2022/12/23 14:52:21;;;;;;;;;;;;;;;;;;6189400;23;19998;-84
2022/12/23 14:54:47;;;;;;;;;;;;;;;;;;6191849;23;19912;-84
2022/12/23 14:57:12;;;;;;;;;;;;;;;;;;6191367;23;19912;-84
2022/12/23 14:59:38;;;;;;;;;;;;;;;;;;6187782;23;19979;-83
2022/12/23 15:02:04;;;;;;;;;;;;;;;;;;6187146;23;19920;-84
2022/12/23 15:04:29;;;;;;;;;;;;;;;;;;6193516;23;19912;-85
2022/12/23 15:06:55;;;;;;;;;;;;;;;;;;6194647;23;19916;-84
2022/12/23 15:09:21;;;;;;;;;;;;;;;;;;6200339;23;19912;-83
2022/12/23 15:11:46;;;;;;;;;;;;;;;;;;6200447;23;19912;-83
2022/12/23 15:14:12;;;;;;;;;;;;;;;;;;6198725;23;19932;-83
2022/12/23 15:16:39;;;;;;;;;;;;;;;;;;6186677;23;19912;-84
2022/12/23 15:19:05;;;;;;;;;;;;;;;;;;6198906;23;19920;-85
2022/12/23 15:21:30;;;;;;;;;;;;;;;;;;6205783;23;19948;-82
2022/12/23 15:23:56;;;;;;;;;;;;;;;;;;6188642;23;19912;-81
2022/12/23 15:26:22;;;;;;;;;;;;;;;;;;6170719;23;19999;-78
2022/12/23 15:28:47;;;;;;;;;;;;;;;;;;6194323;23;19916;-78
2022/12/23 15:31:13;;;;;;;;;;;;;;;;;;6183699;23;19924;-75
2022/12/23 15:33:38;;;;;;;;;;;;;;;;;;6181668;23;19995;-76
2022/12/23 15:36:04;;;;;;;;;;;;;;;;;;6183758;23;19990;-79
2022/12/23 15:38:30;;;;;;;;;;;;;;;;;;6177541;23;20292;-79
2022/12/23 15:40:55;;;;;;;;;;;;;;;;;;6137396;23;19927;-80
2022/12/23 15:43:24;;;;;;;;;;;;;;;;;;6139088;23;19917;-82
2022/12/23 15:45:51;;;;;;;;;;;;;;;;;;6184524;23;20251;-82
2022/12/23 15:48:16;;;;;;;;;;;;;;;;;;6188851;23;19919;-85
2022/12/23 15:50:42;;;;;;;;;;;;;;;;;;6183630;23;19916;-80
2022/12/23 15:53:08;;;;;;;;;;;;;;;;;;6181142;23;19912;-82
2022/12/23 15:55:33;;;;;;;;;;;;;;;;;;6185646;23;19919;-78
2022/12/23 15:57:59;;;;;;;;;;;;;;;;;;6182612;23;19912;-79
2022/12/23 16:00:24;;;;;;;;;;;;;;;;;;6182439;23;20264;-82
2022/12/23 16:02:50;;;;;;;;;;;;;;;;;;6183811;23;19912;-81
2022/12/23 16:05:16;;;;;;;;;;;;;;;;;;6183728;23;19912;-82
2022/12/23 16:07:41;;;;;;;;;;;;;;;;;;6182112;23;19920;-81
2022/12/23 16:10:07;;;;;;;;;;;;;;;;;;6183809;23;19982;-81
2022/12/23 16:12:33;;;;;;;;;;;;;;;;;;6188142;23;19934;-83
2022/12/23 16:14:59;;;;;;;;;;;;;;;;;;6188117;23;19912;-82
2022/12/23 16:17:25;;;;;;;;;;;;;;;;;;6184961;23;20313;-83
2022/12/23 16:19:51;;;;;;;;;;;;;;;;;;6208699;22;19932;-85
2022/12/23 16:25:12;;;;;;;;;;;;;;;;;;6219769;22;19928;-82
2022/12/23 16:27:38;;;;;;;;;;;;;;;;;;6192303;23;19912;-83
2022/12/23 16:30:04;;;;;;;;;;;;;;;;;;6166586;23;20303;-83
2022/12/23 16:32:29;;;;;;;;;;;;;;;;;;6188312;23;19917;-82
2022/12/23 16:34:55;;;;;;;;;;;;;;;;;;6188837;23;19918;-83
2022/12/23 16:37:21;;;;;;;;;;;;;;;;;;6170648;23;20093;-87
2022/12/23 16:39:46;;;;;;;;;;;;;;;;;;6193691;23;19932;-83
2022/12/23 16:42:12;;;;;;;;;;;;;;;;;;6186265;23;20337;-84
2022/12/23 16:44:38;;;;;;;;;;;;;;;;;;6168639;23;19912;-85
2022/12/23 16:47:03;;;;;;;;;;;;;;;;;;6204027;22;19931;-88
2022/12/23 16:49:29;;;;;;;;;;;;;;;;;;6215220;23;19950;-86
2022/12/23 16:54:27;;;;;;;;;;;;;;;;;;6194022;23;19955;-87
2022/12/23 16:56:53;;;;;;;;;;;;;;;;;;6211765;23;19896;-87
2022/12/23 16:59:19;;;;;;;;;;;;;;;;;;6194035;23;19919;-84
2022/12/23 17:01:45;;;;;;;;;;;;;;;;;;6196326;23;20400;-83
2022/12/23 17:04:11;;;;;;;;;;;;;;;;;;6194548;23;19912;-84
2022/12/23 17:06:36;;;;;;;;;;;;;;;;;;6202452;23;19964;-85
2022/12/23 17:09:02;;;;;;;;;;;;;;;;;;6207505;23;19916;-85
2022/12/23 17:11:28;;;;;;;;;;;;;;;;;;6199195;23;19990;-82